PWSweather.com
Personal Weather Stations
Station Observations
KCOGRAND2
Redlands, Southcamp Road & Dakota Circle, Grand Junction, CO 81507

Redlands, Southcamp Road & Dakota CircleGrand Junction, CO 81507

Lat: 39.055, Lon: -108.637

Elevation: 4870

Station Type: RadioShack WX200

High Low Average
Temperature 43.9°F6.6°C 24.8°F-4.0°C 34.0°F1.1°C
Dew Point 11.3°F-11.5°C -5.8°F-21.0°C 5.8°F-14.6°C
Winds 13.0 mph 20.9 kmh Calm Calm 3.0 mph S4.8 kmh S
Wind Gusts 22.4 mph36.0 kmh -- 5.0 mph8.0 kmh
Humidity 51% 12% 32%
Pressure 25.42 in860.8 mb 25.22 in854.0 mb -
Precipitation 0.00 in0.0 mm - -
Hour Temp Dew Point Humidity Winds Wind Gusts Pressure Precip Precip Rate Daily Precip Total
12:04 AM 37.0°F2.8°C -1.3°F-18.5°C 19% 13.0 mph ESE20.9 kmh ESE 22.4 mph36.0 kmh 25.22 in854.0 mb 0.00 in0.0 mm 0.00 in0.0 mm 0.00 in0.0 mm
12:09 AM 36.5°F2.5°C 0.3°F-17.6°C 21% 12.0 mph ESE19.3 kmh ESE 15.2 mph24.5 kmh 25.22 in854.0 mb 0.00 in0.0 mm 0.00 in0.0 mm 0.00 in0.0 mm
12:14 AM 36.3°F2.4°C 1.2°F-17.1°C 22% 10.0 mph ESE16.1 kmh ESE 17.2 mph27.7 kmh 25.22 in854.0 mb 0.00 in0.0 mm 0.00 in0.0 mm 0.00 in0.0 mm
12:19 AM 36.3°F2.4°C 1.2°F-17.1°C 22% 10.0 mph ESE16.1 kmh ESE 15.9 mph25.6 kmh 25.22 in854.0 mb 0.00 in0.0 mm 0.00 in0.0 mm 0.00 in0.0 mm
12:24 AM 36.3°F2.4°C 1.2°F-17.1°C 22% 10.0 mph ESE16.1 kmh ESE 16.8 mph27.0 kmh 25.25 in855.1 mb 0.00 in0.0 mm 0.00 in0.0 mm 0.00 in0.0 mm
12:29 AM 35.8°F2.1°C 2.5°F-16.4°C 24% 10.0 mph ESE16.1 kmh ESE 13.9 mph22.4 kmh 25.25 in855.1 mb 0.00 in0.0 mm 0.00 in0.0 mm 0.00 in0.0 mm
12:34 AM 35.8°F2.1°C 2.5°F-16.4°C 24% 9.0 mph ESE14.5 kmh ESE 11.6 mph18.7 kmh 25.25 in855.1 mb 0.00 in0.0 mm 0.00 in0.0 mm 0.00 in0.0 mm
12:39 AM 36.1°F2.3°C 1.0°F-17.2°C 22% 9.0 mph ESE14.5 kmh ESE 17.2 mph27.7 kmh 25.25 in855.1 mb 0.00 in0.0 mm 0.00 in0.0 mm 0.00 in0.0 mm
12:44 AM 36.1°F2.3°C 1.0°F-17.2°C 22% 9.0 mph ESE14.5 kmh ESE 15.4 mph24.8 kmh 25.25 in855.1 mb 0.00 in0.0 mm 0.00 in0.0 mm 0.00 in0.0 mm
12:49 AM 35.6°F2.0°C 0.5°F-17.5°C 22% 9.0 mph ESE14.5 kmh ESE 14.8 mph23.8 kmh 25.25 in855.1 mb 0.00 in0.0 mm 0.00 in0.0 mm 0.00 in0.0 mm
12:54 AM 35.8°F2.1°C 0.7°F-17.4°C 22% 8.0 mph ESE12.9 kmh ESE 12.1 mph19.5 kmh 25.25 in855.1 mb 0.00 in0.0 mm 0.00 in0.0 mm 0.00 in0.0 mm
12:59 AM 35.6°F2.0°C 0.5°F-17.5°C 22% 8.0 mph ESE12.9 kmh ESE 12.1 mph19.5 kmh 25.25 in855.1 mb 0.00 in0.0 mm 0.00 in0.0 mm 0.00 in0.0 mm
01:04 AM 35.6°F2.0°C 0.5°F-17.5°C 22% 8.0 mph E12.9 kmh E 11.6 mph18.7 kmh 25.25 in855.1 mb 0.00 in0.0 mm 0.00 in0.0 mm 0.00 in0.0 mm
01:09 AM 35.1°F1.7°C 1.9°F-16.7°C 24% 8.0 mph E12.9 kmh E 10.1 mph16.3 kmh 25.25 in855.1 mb 0.00 in0.0 mm 0.00 in0.0 mm 0.00 in0.0 mm
01:14 AM 35.2°F1.8°C 2.1°F-16.6°C 24% 7.0 mph E11.3 kmh E 11.0 mph17.7 kmh 25.25 in855.1 mb 0.00 in0.0 mm 0.00 in0.0 mm 0.00 in0.0 mm
01:19 AM 35.2°F1.8°C 2.1°F-16.6°C 24% 8.0 mph E12.9 kmh E 13.9 mph22.4 kmh 25.25 in855.1 mb 0.00 in0.0 mm 0.00 in0.0 mm 0.00 in0.0 mm
01:24 AM 34.9°F1.6°C 1.8°F-16.8°C 24% 7.0 mph NE11.3 kmh NE 7.8 mph12.6 kmh 25.25 in855.1 mb 0.00 in0.0 mm 0.00 in0.0 mm 0.00 in0.0 mm
01:29 AM 34.7°F1.5°C 1.6°F-16.9°C 24% 6.0 mph N9.7 kmh N 9.6 mph15.4 kmh 25.25 in855.1 mb 0.00 in0.0 mm 0.00 in0.0 mm 0.00 in0.0 mm
01:34 AM 34.7°F1.5°C 1.6°F-16.9°C 24% 6.0 mph N9.7 kmh N 8.7 mph14.0 kmh 25.25 in855.1 mb 0.00 in0.0 mm 0.00 in0.0 mm 0.00 in0.0 mm
01:39 AM 34.7°F1.5°C 2.5°F-16.4°C 25% 5.0 mph NE8.0 kmh NE 8.3 mph13.4 kmh 25.25 in855.1 mb 0.00 in0.0 mm 0.00 in0.0 mm 0.00 in0.0 mm
01:44 AM 34.3°F1.3°C 2.3°F-16.5°C 25% 4.0 mph E6.4 kmh E 6.3 mph10.1 kmh 25.25 in855.1 mb 0.00 in0.0 mm 0.00 in0.0 mm 0.00 in0.0 mm
01:49 AM 33.8°F1.0°C 3.4°F-15.9°C 27% 4.0 mph ESE6.4 kmh ESE 6.3 mph10.1 kmh 25.25 in855.1 mb 0.00 in0.0 mm 0.00 in0.0 mm 0.00 in0.0 mm
01:54 AM 33.4°F0.8°C 5.4°F-14.8°C 30% 3.0 mph SE4.8 kmh SE 4.9 mph7.9 kmh 25.28 in856.1 mb 0.00 in0.0 mm 0.00 in0.0 mm 0.00 in0.0 mm
01:59 AM 33.1°F0.6°C 5.0°F-15.0°C 30% 3.0 mph SE4.8 kmh SE 4.9 mph7.9 kmh 25.28 in856.1 mb 0.00 in0.0 mm 0.00 in0.0 mm 0.00 in0.0 mm
02:04 AM 32.5°F0.3°C 5.4°F-14.8°C 31% 3.0 mph SE4.8 kmh SE 4.9 mph7.9 kmh 25.28 in856.1 mb 0.00 in0.0 mm 0.00 in0.0 mm 0.00 in0.0 mm
02:09 AM 32.2°F0.1°C 5.0°F-15.0°C 31% 2.0 mph SE3.2 kmh SE 3.1 mph5.0 kmh 25.28 in856.1 mb 0.00 in0.0 mm 0.00 in0.0 mm 0.00 in0.0 mm
02:14 AM 32.2°F0.1°C 5.7°F-14.6°C 32% 1.0 mph SE1.6 kmh SE 3.6 mph5.8 kmh 25.28 in856.1 mb 0.00 in0.0 mm 0.00 in0.0 mm 0.00 in0.0 mm
02:19 AM 32.5°F0.3°C 6.1°F-14.4°C 32% 1.0 mph SE1.6 kmh SE 3.6 mph5.8 kmh 25.28 in856.1 mb 0.00 in0.0 mm 0.00 in0.0 mm 0.00 in0.0 mm
02:24 AM 32.7°F0.4°C 5.5°F-14.7°C 31% 2.0 mph SE3.2 kmh SE 6.3 mph10.1 kmh 25.28 in856.1 mb 0.00 in0.0 mm 0.00 in0.0 mm 0.00 in0.0 mm
02:30 AM 33.1°F0.6°C 5.7°F-14.6°C 31% 3.0 mph ESE4.8 kmh ESE 5.8 mph9.3 kmh 25.28 in856.1 mb 0.00 in0.0 mm 0.00 in0.0 mm 0.00 in0.0 mm
02:35 AM 33.1°F0.6°C 5.0°F-15.0°C 30% 3.0 mph E4.8 kmh E 5.4 mph8.7 kmh 25.28 in856.1 mb 0.00 in0.0 mm 0.00 in0.0 mm 0.00 in0.0 mm
02:40 AM 32.5°F0.3°C 5.4°F-14.8°C 31% 2.0 mph NE3.2 kmh NE 2.7 mph4.3 kmh 25.31 in857.1 mb 0.00 in0.0 mm 0.00 in0.0 mm 0.00 in0.0 mm
02:45 AM 32.5°F0.3°C 5.4°F-14.8°C 31% 1.0 mph NE1.6 kmh NE 4.9 mph7.9 kmh 25.31 in857.1 mb 0.00 in0.0 mm 0.00 in0.0 mm 0.00 in0.0 mm
02:50 AM 32.0°F0.0°C 4.8°F-15.1°C 31% 2.0 mph ENE3.2 kmh ENE 6.3 mph10.1 kmh 25.31 in857.1 mb 0.00 in0.0 mm 0.00 in0.0 mm 0.00 in0.0 mm
02:55 AM 31.3°F-0.4°C 4.8°F-15.1°C 32% 3.0 mph E4.8 kmh E 4.5 mph7.2 kmh 25.31 in857.1 mb 0.00 in0.0 mm 0.00 in0.0 mm 0.00 in0.0 mm
03:00 AM 31.6°F-0.2°C 5.2°F-14.9°C 32% 3.0 mph ESE4.8 kmh ESE 4.5 mph7.2 kmh 25.31 in857.1 mb 0.00 in0.0 mm 0.00 in0.0 mm 0.00 in0.0 mm
03:05 AM 32.0°F0.0°C 5.5°F-14.7°C 32% 4.0 mph E6.4 kmh E 6.3 mph10.1 kmh 25.31 in857.1 mb 0.00 in0.0 mm 0.00 in0.0 mm 0.00 in0.0 mm
03:10 AM 32.7°F0.4°C 5.5°F-14.7°C 31% 5.0 mph E8.0 kmh E 10.1 mph16.3 kmh 25.31 in857.1 mb 0.00 in0.0 mm 0.00 in0.0 mm 0.00 in0.0 mm
03:15 AM 33.1°F0.6°C 5.0°F-15.0°C 30% 6.0 mph E9.7 kmh E 10.5 mph16.9 kmh 25.31 in857.1 mb 0.00 in0.0 mm 0.00 in0.0 mm 0.00 in0.0 mm
03:20 AM 32.7°F0.4°C 5.5°F-14.7°C 31% 6.0 mph E9.7 kmh E 9.6 mph15.4 kmh 25.31 in857.1 mb 0.00 in0.0 mm 0.00 in0.0 mm 0.00 in0.0 mm
03:25 AM 32.7°F0.4°C 5.5°F-14.7°C 31% 6.0 mph E9.7 kmh E 10.5 mph16.9 kmh 25.31 in857.1 mb 0.00 in0.0 mm 0.00 in0.0 mm 0.00 in0.0 mm
03:30 AM 32.5°F0.3°C 4.6°F-15.2°C 30% 5.0 mph E8.0 kmh E 8.3 mph13.4 kmh 25.31 in857.1 mb 0.00 in0.0 mm 0.00 in0.0 mm 0.00 in0.0 mm
03:35 AM 32.5°F0.3°C 4.6°F-15.2°C 30% 5.0 mph E8.0 kmh E 7.4 mph11.9 kmh 25.31 in857.1 mb 0.00 in0.0 mm 0.00 in0.0 mm 0.00 in0.0 mm
03:40 AM 32.4°F0.2°C 4.5°F-15.3°C 30% 4.0 mph E6.4 kmh E 7.8 mph12.6 kmh 25.31 in857.1 mb 0.00 in0.0 mm 0.00 in0.0 mm 0.00 in0.0 mm
03:45 AM 32.0°F0.0°C 4.8°F-15.1°C 31% 4.0 mph E6.4 kmh E 9.2 mph14.8 kmh 25.31 in857.1 mb 0.00 in0.0 mm 0.00 in0.0 mm 0.00 in0.0 mm
03:50 AM 32.5°F0.3°C 4.6°F-15.2°C 30% 5.0 mph E8.0 kmh E 10.5 mph16.9 kmh 25.31 in857.1 mb 0.00 in0.0 mm 0.00 in0.0 mm 0.00 in0.0 mm
03:55 AM 32.5°F0.3°C 4.6°F-15.2°C 30% 6.0 mph E9.7 kmh E 10.1 mph16.3 kmh 25.31 in857.1 mb 0.00 in0.0 mm 0.00 in0.0 mm 0.00 in0.0 mm
04:00 AM 32.0°F0.0°C 4.1°F-15.5°C 30% 5.0 mph E8.0 kmh E 6.7 mph10.8 kmh 25.31 in857.1 mb 0.00 in0.0 mm 0.00 in0.0 mm 0.00 in0.0 mm
04:05 AM 31.3°F-0.4°C 3.6°F-15.8°C 30% 3.0 mph E4.8 kmh E 4.0 mph6.4 kmh 25.31 in857.1 mb 0.00 in0.0 mm 0.00 in0.0 mm 0.00 in0.0 mm
04:10 AM 30.6°F-0.8°C 5.0°F-15.0°C 33% 2.0 mph E3.2 kmh E 6.3 mph10.1 kmh 25.31 in857.1 mb 0.00 in0.0 mm 0.00 in0.0 mm 0.00 in0.0 mm
04:15 AM 29.7°F-1.3°C 6.6°F-14.1°C 37% 3.0 mph S4.8 kmh S 6.7 mph10.8 kmh 25.31 in857.1 mb 0.00 in0.0 mm 0.00 in0.0 mm 0.00 in0.0 mm
04:20 AM 29.7°F-1.3°C 9.0°F-12.8°C 41% 3.0 mph WSW4.8 kmh WSW 7.4 mph11.9 kmh 25.31 in857.1 mb 0.00 in0.0 mm 0.00 in0.0 mm 0.00 in0.0 mm
04:25 AM 30.0°F-1.1°C 8.1°F-13.3°C 39% 3.0 mph WSW4.8 kmh WSW 5.8 mph9.3 kmh 25.34 in858.1 mb 0.00 in0.0 mm 0.00 in0.0 mm 0.00 in0.0 mm
04:30 AM 30.0°F-1.1°C 6.3°F-14.3°C 36% 2.0 mph SW3.2 kmh SW 3.6 mph5.8 kmh 25.34 in858.1 mb 0.00 in0.0 mm 0.00 in0.0 mm 0.00 in0.0 mm
04:35 AM 29.1°F-1.6°C 8.4°F-13.1°C 41% 2.0 mph SW3.2 kmh SW 4.9 mph7.9 kmh 25.34 in858.1 mb 0.00 in0.0 mm 0.00 in0.0 mm 0.00 in0.0 mm
04:40 AM 28.6°F-1.9°C 7.9°F-13.4°C 41% 1.0 mph SSW1.6 kmh SSW 3.6 mph5.8 kmh 25.34 in858.1 mb 0.00 in0.0 mm 0.00 in0.0 mm 0.00 in0.0 mm
04:45 AM 28.2°F-2.1°C 8.1°F-13.3°C 42% 2.0 mph S3.2 kmh S 4.9 mph7.9 kmh 25.34 in858.1 mb 0.00 in0.0 mm 0.00 in0.0 mm 0.00 in0.0 mm
04:50 AM 27.3°F-2.6°C 7.9°F-13.4°C 43% 3.0 mph ESE4.8 kmh ESE 4.9 mph7.9 kmh 25.34 in858.1 mb 0.00 in0.0 mm 0.00 in0.0 mm 0.00 in0.0 mm
04:55 AM 26.8°F-2.9°C 7.9°F-13.4°C 44% 3.0 mph E4.8 kmh E 4.0 mph6.4 kmh 25.34 in858.1 mb 0.00 in0.0 mm 0.00 in0.0 mm 0.00 in0.0 mm
05:00 AM 26.2°F-3.2°C 7.9°F-13.4°C 45% 2.0 mph E3.2 kmh E 3.6 mph5.8 kmh 25.34 in858.1 mb 0.00 in0.0 mm 0.00 in0.0 mm 0.00 in0.0 mm
05:05 AM 26.4°F-3.1°C 7.5°F-13.6°C 44% 1.0 mph E1.6 kmh E 6.3 mph10.1 kmh 25.34 in858.1 mb 0.00 in0.0 mm 0.00 in0.0 mm 0.00 in0.0 mm
05:10 AM 27.9°F-2.3°C 7.7°F-13.5°C 42% 4.0 mph ENE6.4 kmh ENE 9.2 mph14.8 kmh 25.34 in858.1 mb 0.00 in0.0 mm 0.00 in0.0 mm 0.00 in0.0 mm
05:15 AM 27.7°F-2.4°C 7.7°F-13.5°C 42% 5.0 mph NE8.0 kmh NE 6.9 mph11.1 kmh 25.34 in858.1 mb 0.00 in0.0 mm 0.00 in0.0 mm 0.00 in0.0 mm
05:20 AM 27.1°F-2.7°C 7.7°F-13.5°C 43% 3.0 mph NNE4.8 kmh NNE 4.9 mph7.9 kmh 25.34 in858.1 mb 0.00 in0.0 mm 0.00 in0.0 mm 0.00 in0.0 mm
05:25 AM 27.1°F-2.7°C 7.7°F-13.5°C 43% 3.0 mph NNE4.8 kmh NNE 5.4 mph8.7 kmh 25.37 in859.1 mb 0.00 in0.0 mm 0.00 in0.0 mm 0.00 in0.0 mm
05:30 AM 27.1°F-2.7°C 7.2°F-13.8°C 42% 3.0 mph NE4.8 kmh NE 4.9 mph7.9 kmh 25.37 in859.1 mb 0.00 in0.0 mm 0.00 in0.0 mm 0.00 in0.0 mm
05:35 AM 27.5°F-2.5°C 7.5°F-13.6°C 42% 2.0 mph NE3.2 kmh NE 4.9 mph7.9 kmh 25.37 in859.1 mb 0.00 in0.0 mm 0.00 in0.0 mm 0.00 in0.0 mm
05:40 AM 27.7°F-2.4°C 7.2°F-13.8°C 41% 2.0 mph NE3.2 kmh NE 5.4 mph8.7 kmh 25.37 in859.1 mb 0.00 in0.0 mm 0.00 in0.0 mm 0.00 in0.0 mm
05:45 AM 27.9°F-2.3°C 7.3°F-13.7°C 41% 4.0 mph NE6.4 kmh NE 6.3 mph10.1 kmh 25.37 in859.1 mb 0.00 in0.0 mm 0.00 in0.0 mm 0.00 in0.0 mm
05:50 AM 28.2°F-2.1°C 5.9°F-14.5°C 38% 4.0 mph NE6.4 kmh NE 8.7 mph14.0 kmh 25.37 in859.1 mb 0.00 in0.0 mm 0.00 in0.0 mm 0.00 in0.0 mm
05:55 AM 28.4°F-2.0°C 5.5°F-14.7°C 37% 4.0 mph ENE6.4 kmh ENE 7.4 mph11.9 kmh 25.37 in859.1 mb 0.00 in0.0 mm 0.00 in0.0 mm 0.00 in0.0 mm
06:00 AM 28.8°F-1.8°C 5.2°F-14.9°C 36% 4.0 mph ENE6.4 kmh ENE 6.9 mph11.1 kmh 25.37 in859.1 mb 0.00 in0.0 mm 0.00 in0.0 mm 0.00 in0.0 mm
06:05 AM 28.0°F-2.2°C 4.6°F-15.2°C 36% 4.0 mph ENE6.4 kmh ENE 5.4 mph8.7 kmh 25.37 in859.1 mb 0.00 in0.0 mm 0.00 in0.0 mm 0.00 in0.0 mm
06:10 AM 27.3°F-2.6°C 4.5°F-15.3°C 37% 3.0 mph NE4.8 kmh NE 4.0 mph6.4 kmh 25.37 in859.1 mb 0.00 in0.0 mm 0.00 in0.0 mm 0.00 in0.0 mm
06:15 AM 27.3°F-2.6°C 5.2°F-14.9°C 38% 2.0 mph NE3.2 kmh NE 4.5 mph7.2 kmh 25.37 in859.1 mb 0.00 in0.0 mm 0.00 in0.0 mm 0.00 in0.0 mm
06:20 AM 27.1°F-2.7°C 5.0°F-15.0°C 38% 1.0 mph NE1.6 kmh NE 5.8 mph9.3 kmh 25.37 in859.1 mb 0.00 in0.0 mm 0.00 in0.0 mm 0.00 in0.0 mm
06:25 AM 27.1°F-2.7°C 5.5°F-14.7°C 39% 2.0 mph NE3.2 kmh NE 5.8 mph9.3 kmh 25.37 in859.1 mb 0.00 in0.0 mm 0.00 in0.0 mm 0.00 in0.0 mm
06:30 AM 26.8°F-2.9°C 5.7°F-14.6°C 40% 2.0 mph ENE3.2 kmh ENE 4.5 mph7.2 kmh 25.37 in859.1 mb 0.00 in0.0 mm 0.00 in0.0 mm 0.00 in0.0 mm
06:35 AM 26.6°F-3.0°C 5.5°F-14.7°C 40% 2.0 mph E3.2 kmh E 4.0 mph6.4 kmh 25.37 in859.1 mb 0.00 in0.0 mm 0.00 in0.0 mm 0.00 in0.0 mm
06:40 AM 26.2°F-3.2°C 5.7°F-14.6°C 41% 1.0 mph E1.6 kmh E 4.0 mph6.4 kmh 25.37 in859.1 mb 0.00 in0.0 mm 0.00 in0.0 mm 0.00 in0.0 mm
06:45 AM 25.7°F-3.5°C 5.9°F-14.5°C 42% 1.0 mph E1.6 kmh E 4.0 mph6.4 kmh 25.37 in859.1 mb 0.00 in0.0 mm 0.00 in0.0 mm 0.00 in0.0 mm
06:50 AM 25.7°F-3.5°C 6.3°F-14.3°C 43% Calm Calm 2.7 mph4.3 kmh 25.37 in859.1 mb 0.00 in0.0 mm 0.00 in0.0 mm 0.00 in0.0 mm
06:55 AM 25.7°F-3.5°C 6.8°F-14.0°C 44% Calm Calm -- 25.37 in859.1 mb 0.00 in0.0 mm 0.00 in0.0 mm 0.00 in0.0 mm
07:00 AM 25.3°F-3.7°C 7.0°F-13.9°C 45% Calm Calm -- 25.37 in859.1 mb 0.00 in0.0 mm 0.00 in0.0 mm 0.00 in0.0 mm
07:05 AM 25.3°F-3.7°C 7.5°F-13.6°C 46% Calm Calm -- 25.37 in859.1 mb 0.00 in0.0 mm 0.00 in0.0 mm 0.00 in0.0 mm
07:10 AM 25.0°F-3.9°C 8.1°F-13.3°C 48% Calm Calm -- 25.39 in859.8 mb 0.00 in0.0 mm 0.00 in0.0 mm 0.00 in0.0 mm
07:15 AM 25.0°F-3.9°C 8.6°F-13.0°C 49% Calm Calm -- 25.39 in859.8 mb 0.00 in0.0 mm 0.00 in0.0 mm 0.00 in0.0 mm
07:20 AM 25.0°F-3.9°C 8.6°F-13.0°C 49% Calm Calm -- 25.39 in859.8 mb 0.00 in0.0 mm 0.00 in0.0 mm 0.00 in0.0 mm
07:25 AM 25.0°F-3.9°C 9.0°F-12.8°C 50% Calm Calm -- 25.39 in859.8 mb 0.00 in0.0 mm 0.00 in0.0 mm 0.00 in0.0 mm
07:30 AM 24.8°F-4.0°C 9.3°F-12.6°C 51% Calm Calm -- 25.39 in859.8 mb 0.00 in0.0 mm 0.00 in0.0 mm 0.00 in0.0 mm
07:35 AM 25.5°F-3.6°C 9.9°F-12.3°C 51% Calm Calm -- 25.39 in859.8 mb 0.00 in0.0 mm 0.00 in0.0 mm 0.00 in0.0 mm
07:40 AM 26.8°F-2.9°C 10.2°F-12.1°C 49% Calm Calm 4.0 mph6.4 kmh 25.39 in859.8 mb 0.00 in0.0 mm 0.00 in0.0 mm 0.00 in0.0 mm
07:45 AM 27.0°F-2.8°C 9.9°F-12.3°C 48% 2.0 mph E3.2 kmh E 4.0 mph6.4 kmh 25.39 in859.8 mb 0.00 in0.0 mm 0.00 in0.0 mm 0.00 in0.0 mm
07:50 AM 28.4°F-2.0°C 10.2°F-12.1°C 46% 1.0 mph E1.6 kmh E -- 25.39 in859.8 mb 0.00 in0.0 mm 0.00 in0.0 mm 0.00 in0.0 mm
07:55 AM 30.0°F-1.1°C 11.3°F-11.5°C 45% Calm Calm -- 25.39 in859.8 mb 0.00 in0.0 mm 0.00 in0.0 mm 0.00 in0.0 mm
08:00 AM 29.7°F-1.3°C 9.9°F-12.3°C 43% Calm Calm -- 25.39 in859.8 mb 0.00 in0.0 mm 0.00 in0.0 mm 0.00 in0.0 mm
08:06 AM 31.1°F-0.5°C 10.8°F-11.8°C 42% Calm Calm -- 25.39 in859.8 mb 0.00 in0.0 mm 0.00 in0.0 mm 0.00 in0.0 mm
08:11 AM 32.0°F0.0°C 10.9°F-11.7°C 41% Calm Calm -- 25.39 in859.8 mb 0.00 in0.0 mm 0.00 in0.0 mm 0.00 in0.0 mm
08:16 AM 31.5°F-0.3°C 9.3°F-12.6°C 39% Calm Calm -- 25.39 in859.8 mb 0.00 in0.0 mm 0.00 in0.0 mm 0.00 in0.0 mm
08:21 AM 32.4°F0.2°C 9.7°F-12.4°C 38% Calm Calm -- 25.39 in859.8 mb 0.00 in0.0 mm 0.00 in0.0 mm 0.00 in0.0 mm
08:26 AM 32.9°F0.5°C 9.5°F-12.5°C 37% Calm Calm -- 25.42 in860.8 mb 0.00 in0.0 mm 0.00 in0.0 mm 0.00 in0.0 mm
08:31 AM 32.9°F0.5°C 8.2°F-13.2°C 35% Calm Calm -- 25.42 in860.8 mb 0.00 in0.0 mm 0.00 in0.0 mm 0.00 in0.0 mm
08:36 AM 33.4°F0.8°C 8.8°F-12.9°C 35% Calm Calm -- 25.42 in860.8 mb 0.00 in0.0 mm 0.00 in0.0 mm 0.00 in0.0 mm
08:41 AM 32.9°F0.5°C 7.7°F-13.5°C 34% 1.0 mph ENE1.6 kmh ENE 5.8 mph9.3 kmh 25.42 in860.8 mb 0.00 in0.0 mm 0.00 in0.0 mm 0.00 in0.0 mm
08:46 AM 33.1°F0.6°C 9.1°F-12.7°C 36% 3.0 mph W4.8 kmh W 6.3 mph10.1 kmh 25.42 in860.8 mb 0.00 in0.0 mm 0.00 in0.0 mm 0.00 in0.0 mm
08:51 AM 32.7°F0.4°C 9.3°F-12.6°C 37% 5.0 mph W8.0 kmh W 8.3 mph13.4 kmh 25.42 in860.8 mb 0.00 in0.0 mm 0.00 in0.0 mm 0.00 in0.0 mm
08:56 AM 32.7°F0.4°C 9.9°F-12.3°C 38% 5.0 mph W8.0 kmh W 8.3 mph13.4 kmh 25.42 in860.8 mb 0.00 in0.0 mm 0.00 in0.0 mm 0.00 in0.0 mm
09:01 AM 32.7°F0.4°C 9.3°F-12.6°C 37% 6.0 mph W9.7 kmh W 9.6 mph15.4 kmh 25.42 in860.8 mb 0.00 in0.0 mm 0.00 in0.0 mm 0.00 in0.0 mm
09:06 AM 33.3°F0.7°C 10.4°F-12.0°C 38% 6.0 mph W9.7 kmh W 7.8 mph12.6 kmh 25.42 in860.8 mb 0.00 in0.0 mm 0.00 in0.0 mm 0.00 in0.0 mm
09:11 AM 33.3°F0.7°C 9.1°F-12.7°C 36% 6.0 mph WNW9.7 kmh WNW 9.2 mph14.8 kmh 25.42 in860.8 mb 0.00 in0.0 mm 0.00 in0.0 mm 0.00 in0.0 mm
09:16 AM 33.8°F1.0°C 9.1°F-12.7°C 35% 6.0 mph NW9.7 kmh NW 8.3 mph13.4 kmh 25.42 in860.8 mb 0.00 in0.0 mm 0.00 in0.0 mm 0.00 in0.0 mm
09:21 AM 33.1°F0.6°C 8.4°F-13.1°C 35% 6.0 mph WNW9.7 kmh WNW 9.2 mph14.8 kmh 25.42 in860.8 mb 0.00 in0.0 mm 0.00 in0.0 mm 0.00 in0.0 mm
09:26 AM 32.9°F0.5°C 9.0°F-12.8°C 36% 6.0 mph W9.7 kmh W 9.6 mph15.4 kmh 25.42 in860.8 mb 0.00 in0.0 mm 0.00 in0.0 mm 0.00 in0.0 mm
09:31 AM 33.8°F1.0°C 10.4°F-12.0°C 37% 5.0 mph W8.0 kmh W 7.8 mph12.6 kmh 25.42 in860.8 mb 0.00 in0.0 mm 0.00 in0.0 mm 0.00 in0.0 mm
09:36 AM 34.5°F1.4°C 10.9°F-11.7°C 37% 4.0 mph WNW6.4 kmh WNW 6.7 mph10.8 kmh 25.42 in860.8 mb 0.00 in0.0 mm 0.00 in0.0 mm 0.00 in0.0 mm
09:41 AM 34.2°F1.2°C 10.0°F-12.2°C 36% 4.0 mph NW6.4 kmh NW 6.7 mph10.8 kmh 25.42 in860.8 mb 0.00 in0.0 mm 0.00 in0.0 mm 0.00 in0.0 mm
09:46 AM 34.7°F1.5°C 10.6°F-11.9°C 36% 4.0 mph NW6.4 kmh NW 7.4 mph11.9 kmh 25.42 in860.8 mb 0.00 in0.0 mm 0.00 in0.0 mm 0.00 in0.0 mm
09:51 AM 34.3°F1.3°C 9.5°F-12.5°C 35% 5.0 mph NW8.0 kmh NW 8.7 mph14.0 kmh 25.42 in860.8 mb 0.00 in0.0 mm 0.00 in0.0 mm 0.00 in0.0 mm
09:56 AM 34.2°F1.2°C 8.8°F-12.9°C 34% 6.0 mph NW9.7 kmh NW 8.3 mph13.4 kmh 25.42 in860.8 mb 0.00 in0.0 mm 0.00 in0.0 mm 0.00 in0.0 mm
10:01 AM 34.7°F1.5°C 9.3°F-12.6°C 34% 6.0 mph WNW9.7 kmh WNW 8.7 mph14.0 kmh 25.42 in860.8 mb 0.00 in0.0 mm 0.00 in0.0 mm 0.00 in0.0 mm
10:06 AM 35.4°F1.9°C 9.1°F-12.7°C 33% 6.0 mph WNW9.7 kmh WNW 10.1 mph16.3 kmh 25.42 in860.8 mb 0.00 in0.0 mm 0.00 in0.0 mm 0.00 in0.0 mm
10:11 AM 36.1°F2.3°C 9.9°F-12.3°C 33% 5.0 mph WNW8.0 kmh WNW 7.8 mph12.6 kmh 25.42 in860.8 mb 0.00 in0.0 mm 0.00 in0.0 mm 0.00 in0.0 mm
10:16 AM 35.8°F2.1°C 8.8°F-12.9°C 32% 5.0 mph WNW8.0 kmh WNW 9.2 mph14.8 kmh 25.42 in860.8 mb 0.00 in0.0 mm 0.00 in0.0 mm 0.00 in0.0 mm
10:21 AM 35.1°F1.7°C 8.2°F-13.2°C 32% 6.0 mph WNW9.7 kmh WNW 8.3 mph13.4 kmh 25.42 in860.8 mb 0.00 in0.0 mm 0.00 in0.0 mm 0.00 in0.0 mm
10:26 AM 35.6°F2.0°C 8.6°F-13.0°C 32% 5.0 mph WNW8.0 kmh WNW 7.4 mph11.9 kmh 25.42 in860.8 mb 0.00 in0.0 mm 0.00 in0.0 mm 0.00 in0.0 mm
10:31 AM 35.6°F2.0°C 8.6°F-13.0°C 32% 5.0 mph WNW8.0 kmh WNW 7.8 mph12.6 kmh 25.42 in860.8 mb 0.00 in0.0 mm 0.00 in0.0 mm 0.00 in0.0 mm
10:36 AM 36.1°F2.3°C 8.4°F-13.1°C 31% 5.0 mph WNW8.0 kmh WNW 6.9 mph11.1 kmh 25.42 in860.8 mb 0.00 in0.0 mm 0.00 in0.0 mm 0.00 in0.0 mm
10:41 AM 36.1°F2.3°C 8.4°F-13.1°C 31% 4.0 mph WNW6.4 kmh WNW 8.3 mph13.4 kmh 25.42 in860.8 mb 0.00 in0.0 mm 0.00 in0.0 mm 0.00 in0.0 mm
10:46 AM 36.9°F2.7°C 9.1°F-12.7°C 31% 4.0 mph W6.4 kmh W 9.2 mph14.8 kmh 25.42 in860.8 mb 0.00 in0.0 mm 0.00 in0.0 mm 0.00 in0.0 mm
10:51 AM 36.7°F2.6°C 8.2°F-13.2°C 30% 4.0 mph WNW6.4 kmh WNW 8.3 mph13.4 kmh 25.42 in860.8 mb 0.00 in0.0 mm 0.00 in0.0 mm 0.00 in0.0 mm
10:56 AM 36.9°F2.7°C 8.4°F-13.1°C 30% 3.0 mph W4.8 kmh W 6.3 mph10.1 kmh 25.42 in860.8 mb 0.00 in0.0 mm 0.00 in0.0 mm 0.00 in0.0 mm
11:01 AM 36.5°F2.5°C 8.1°F-13.3°C 30% 3.0 mph WSW4.8 kmh WSW 6.9 mph11.1 kmh 25.42 in860.8 mb 0.00 in0.0 mm 0.00 in0.0 mm 0.00 in0.0 mm
11:06 AM 37.8°F3.2°C 9.1°F-12.7°C 30% 3.0 mph WSW4.8 kmh WSW 5.8 mph9.3 kmh 25.42 in860.8 mb 0.00 in0.0 mm 0.00 in0.0 mm 0.00 in0.0 mm
11:11 AM 37.0°F2.8°C 8.6°F-13.0°C 30% 4.0 mph WNW6.4 kmh WNW 8.7 mph14.0 kmh 25.42 in860.8 mb 0.00 in0.0 mm 0.00 in0.0 mm 0.00 in0.0 mm
11:16 AM 36.5°F2.5°C 8.1°F-13.3°C 30% 5.0 mph WNW8.0 kmh WNW 6.9 mph11.1 kmh 25.42 in860.8 mb 0.00 in0.0 mm 0.00 in0.0 mm 0.00 in0.0 mm
11:21 AM 36.9°F2.7°C 8.4°F-13.1°C 30% 4.0 mph W6.4 kmh W 7.4 mph11.9 kmh 25.42 in860.8 mb 0.00 in0.0 mm 0.00 in0.0 mm 0.00 in0.0 mm
11:26 AM 36.7°F2.6°C 9.0°F-12.8°C 31% 4.0 mph W6.4 kmh W 7.4 mph11.9 kmh 25.42 in860.8 mb 0.00 in0.0 mm 0.00 in0.0 mm 0.00 in0.0 mm
11:31 AM 37.0°F2.8°C 8.6°F-13.0°C 30% 4.0 mph W6.4 kmh W 6.9 mph11.1 kmh 25.42 in860.8 mb 0.00 in0.0 mm 0.00 in0.0 mm 0.00 in0.0 mm
11:36 AM 37.0°F2.8°C 8.6°F-13.0°C 30% 4.0 mph WNW6.4 kmh WNW 6.9 mph11.1 kmh 25.42 in860.8 mb 0.00 in0.0 mm 0.00 in0.0 mm 0.00 in0.0 mm
11:41 AM 37.4°F3.0°C 9.5°F-12.5°C 31% 4.0 mph WNW6.4 kmh WNW 5.8 mph9.3 kmh 25.42 in860.8 mb 0.00 in0.0 mm 0.00 in0.0 mm 0.00 in0.0 mm
11:46 AM 38.1°F3.4°C 10.2°F-12.1°C 31% 4.0 mph WSW6.4 kmh WSW 8.3 mph13.4 kmh 25.42 in860.8 mb 0.00 in0.0 mm 0.00 in0.0 mm 0.00 in0.0 mm
11:51 AM 38.5°F3.6°C 9.0°F-12.8°C 29% 4.0 mph W6.4 kmh W 5.4 mph8.7 kmh 25.42 in860.8 mb 0.00 in0.0 mm 0.00 in0.0 mm 0.00 in0.0 mm
11:56 AM 39.6°F4.2°C 10.0°F-12.2°C 29% 4.0 mph NNW6.4 kmh NNW 8.3 mph13.4 kmh 25.39 in859.8 mb 0.00 in0.0 mm 0.00 in0.0 mm 0.00 in0.0 mm
12:01 PM 38.7°F3.7°C 9.1°F-12.7°C 29% 4.0 mph NNE6.4 kmh NNE 6.7 mph10.8 kmh 25.39 in859.8 mb 0.00 in0.0 mm 0.00 in0.0 mm 0.00 in0.0 mm
12:06 PM 37.9°F3.3°C 8.6°F-13.0°C 29% 4.0 mph W6.4 kmh W 8.7 mph14.0 kmh 25.39 in859.8 mb 0.00 in0.0 mm 0.00 in0.0 mm 0.00 in0.0 mm
12:11 PM 39.4°F4.1°C 9.9°F-12.3°C 29% 4.0 mph WNW6.4 kmh WNW 6.3 mph10.1 kmh 25.39 in859.8 mb 0.00 in0.0 mm 0.00 in0.0 mm 0.00 in0.0 mm
12:16 PM 39.0°F3.9°C 9.5°F-12.5°C 29% 3.0 mph NW4.8 kmh NW 6.3 mph10.1 kmh 25.39 in859.8 mb 0.00 in0.0 mm 0.00 in0.0 mm 0.00 in0.0 mm
12:21 PM 39.9°F4.4°C 10.2°F-12.1°C 29% 3.0 mph NNW4.8 kmh NNW 4.9 mph7.9 kmh 25.39 in859.8 mb 0.00 in0.0 mm 0.00 in0.0 mm 0.00 in0.0 mm
12:26 PM 40.8°F4.9°C 10.2°F-12.1°C 28% 3.0 mph N4.8 kmh N 7.4 mph11.9 kmh 25.39 in859.8 mb 0.00 in0.0 mm 0.00 in0.0 mm 0.00 in0.0 mm
12:31 PM 40.6°F4.8°C 10.0°F-12.2°C 28% 3.0 mph N4.8 kmh N 6.3 mph10.1 kmh 25.39 in859.8 mb 0.00 in0.0 mm 0.00 in0.0 mm 0.00 in0.0 mm
12:36 PM 39.7°F4.3°C 7.7°F-13.5°C 26% 4.0 mph NNW6.4 kmh NNW 7.8 mph12.6 kmh 25.39 in859.8 mb 0.00 in0.0 mm 0.00 in0.0 mm 0.00 in0.0 mm
12:41 PM 40.1°F4.5°C 9.7°F-12.4°C 28% 4.0 mph W6.4 kmh W 6.3 mph10.1 kmh 25.39 in859.8 mb 0.00 in0.0 mm 0.00 in0.0 mm 0.00 in0.0 mm
12:46 PM 40.3°F4.6°C 9.9°F-12.3°C 28% 3.0 mph WNW4.8 kmh WNW 5.4 mph8.7 kmh 25.39 in859.8 mb 0.00 in0.0 mm 0.00 in0.0 mm 0.00 in0.0 mm
12:51 PM 40.1°F4.5°C 8.1°F-13.3°C 26% 3.0 mph W4.8 kmh W 7.8 mph12.6 kmh 25.39 in859.8 mb 0.00 in0.0 mm 0.00 in0.0 mm 0.00 in0.0 mm
12:56 PM 40.1°F4.5°C 8.1°F-13.3°C 26% 4.0 mph WSW6.4 kmh WSW 7.8 mph12.6 kmh 25.37 in859.1 mb 0.00 in0.0 mm 0.00 in0.0 mm 0.00 in0.0 mm
01:01 PM 40.5°F4.7°C 5.5°F-14.7°C 23% 3.0 mph WSW4.8 kmh WSW 6.3 mph10.1 kmh 25.37 in859.1 mb 0.00 in0.0 mm 0.00 in0.0 mm 0.00 in0.0 mm
01:06 PM 41.5°F5.3°C 6.6°F-14.1°C 23% 2.0 mph W3.2 kmh W 5.4 mph8.7 kmh 25.37 in859.1 mb 0.00 in0.0 mm 0.00 in0.0 mm 0.00 in0.0 mm
01:11 PM 41.7°F5.4°C 4.6°F-15.2°C 21% 2.0 mph N3.2 kmh N 5.4 mph8.7 kmh 25.37 in859.1 mb 0.00 in0.0 mm 0.00 in0.0 mm 0.00 in0.0 mm
01:16 PM 42.1°F5.6°C 3.9°F-15.6°C 20% 2.0 mph NNE3.2 kmh NNE 6.7 mph10.8 kmh 25.37 in859.1 mb 0.00 in0.0 mm 0.00 in0.0 mm 0.00 in0.0 mm
01:21 PM 41.5°F5.3°C 4.5°F-15.3°C 21% 4.0 mph N6.4 kmh N 11.2 mph18.0 kmh 25.37 in859.1 mb 0.00 in0.0 mm 0.00 in0.0 mm 0.00 in0.0 mm
01:27 PM 40.6°F4.8°C 0.5°F-17.5°C 18% 6.0 mph WNW9.7 kmh WNW 8.7 mph14.0 kmh 25.37 in859.1 mb 0.00 in0.0 mm 0.00 in0.0 mm 0.00 in0.0 mm
01:32 PM 40.6°F4.8°C 0.5°F-17.5°C 18% 4.0 mph W6.4 kmh W 6.7 mph10.8 kmh 25.37 in859.1 mb 0.00 in0.0 mm 0.00 in0.0 mm 0.00 in0.0 mm
01:37 PM 41.0°F5.0°C 0.9°F-17.3°C 18% 4.0 mph WSW6.4 kmh WSW 5.8 mph9.3 kmh 25.37 in859.1 mb 0.00 in0.0 mm 0.00 in0.0 mm 0.00 in0.0 mm
01:42 PM 41.4°F5.2°C 1.0°F-17.2°C 18% 4.0 mph WSW6.4 kmh WSW 7.8 mph12.6 kmh 25.37 in859.1 mb 0.00 in0.0 mm 0.00 in0.0 mm 0.00 in0.0 mm
01:47 PM 41.2°F5.1°C 0.9°F-17.3°C 18% 4.0 mph SW6.4 kmh SW 6.7 mph10.8 kmh 25.37 in859.1 mb 0.00 in0.0 mm 0.00 in0.0 mm 0.00 in0.0 mm
01:52 PM 41.5°F5.3°C -1.3°F-18.5°C 16% 4.0 mph SW6.4 kmh SW 6.9 mph11.1 kmh 25.37 in859.1 mb 0.00 in0.0 mm 0.00 in0.0 mm 0.00 in0.0 mm
01:57 PM 42.1°F5.6°C -2.2°F-19.0°C 15% 4.0 mph W6.4 kmh W 6.7 mph10.8 kmh 25.37 in859.1 mb 0.00 in0.0 mm 0.00 in0.0 mm 0.00 in0.0 mm
02:02 PM 42.3°F5.7°C -2.0°F-18.9°C 15% 3.0 mph WNW4.8 kmh WNW 5.8 mph9.3 kmh 25.37 in859.1 mb 0.00 in0.0 mm 0.00 in0.0 mm 0.00 in0.0 mm
02:07 PM 42.4°F5.8°C -1.8°F-18.8°C 15% 4.0 mph W6.4 kmh W 8.3 mph13.4 kmh 25.37 in859.1 mb 0.00 in0.0 mm 0.00 in0.0 mm 0.00 in0.0 mm
02:12 PM 41.4°F5.2°C -5.8°F-21.0°C 13% 4.0 mph WSW6.4 kmh WSW 7.4 mph11.9 kmh 25.37 in859.1 mb 0.00 in0.0 mm 0.00 in0.0 mm 0.00 in0.0 mm
02:17 PM 42.4°F5.8°C -1.8°F-18.8°C 15% 3.0 mph WSW4.8 kmh WSW 4.9 mph7.9 kmh 25.37 in859.1 mb 0.00 in0.0 mm 0.00 in0.0 mm 0.00 in0.0 mm
02:22 PM 42.4°F5.8°C -4.9°F-20.5°C 13% 3.0 mph W4.8 kmh W 5.8 mph9.3 kmh 25.37 in859.1 mb 0.00 in0.0 mm 0.00 in0.0 mm 0.00 in0.0 mm
02:27 PM 42.3°F5.7°C -5.1°F-20.6°C 13% 2.0 mph NW3.2 kmh NW 5.4 mph8.7 kmh 25.37 in859.1 mb 0.00 in0.0 mm 0.00 in0.0 mm 0.00 in0.0 mm
02:32 PM 42.1°F5.6°C -5.1°F-20.6°C 13% 4.0 mph NW6.4 kmh NW 10.1 mph16.3 kmh 25.37 in859.1 mb 0.00 in0.0 mm 0.00 in0.0 mm 0.00 in0.0 mm
02:37 PM 42.4°F5.8°C -4.9°F-20.5°C 13% 5.0 mph SW8.0 kmh SW 6.3 mph10.1 kmh 25.37 in859.1 mb 0.00 in0.0 mm 0.00 in0.0 mm 0.00 in0.0 mm
02:42 PM 42.1°F5.6°C -5.1°F-20.6°C 13% 4.0 mph SW6.4 kmh SW 6.7 mph10.8 kmh 25.37 in859.1 mb 0.00 in0.0 mm 0.00 in0.0 mm 0.00 in0.0 mm
02:47 PM 43.0°F6.1°C -4.4°F-20.2°C 13% 3.0 mph SW4.8 kmh SW 5.4 mph8.7 kmh 25.37 in859.1 mb 0.00 in0.0 mm 0.00 in0.0 mm 0.00 in0.0 mm
02:52 PM 42.3°F5.7°C -5.1°F-20.6°C 13% 3.0 mph SW4.8 kmh SW 6.3 mph10.1 kmh 25.37 in859.1 mb 0.00 in0.0 mm 0.00 in0.0 mm 0.00 in0.0 mm
02:57 PM 42.4°F5.8°C -4.9°F-20.5°C 13% 4.0 mph SSW6.4 kmh SSW 6.3 mph10.1 kmh 25.37 in859.1 mb 0.00 in0.0 mm 0.00 in0.0 mm 0.00 in0.0 mm
03:02 PM 42.6°F5.9°C -4.7°F-20.4°C 13% 3.0 mph SSW4.8 kmh SSW 6.3 mph10.1 kmh 25.37 in859.1 mb 0.00 in0.0 mm 0.00 in0.0 mm 0.00 in0.0 mm
03:07 PM 42.4°F5.8°C -4.9°F-20.5°C 13% 3.0 mph SW4.8 kmh SW 5.8 mph9.3 kmh 25.37 in859.1 mb 0.00 in0.0 mm 0.00 in0.0 mm 0.00 in0.0 mm
03:12 PM 42.3°F5.7°C -5.1°F-20.6°C 13% 4.0 mph WSW6.4 kmh WSW 6.3 mph10.1 kmh 25.37 in859.1 mb 0.00 in0.0 mm 0.00 in0.0 mm 0.00 in0.0 mm
03:17 PM 42.6°F5.9°C -4.7°F-20.4°C 13% 3.0 mph W4.8 kmh W 4.9 mph7.9 kmh 25.37 in859.1 mb 0.00 in0.0 mm 0.00 in0.0 mm 0.00 in0.0 mm
03:22 PM 42.8°F6.0°C -4.5°F-20.3°C 13% 2.0 mph NW3.2 kmh NW 3.6 mph5.8 kmh 25.37 in859.1 mb 0.00 in0.0 mm 0.00 in0.0 mm 0.00 in0.0 mm
03:27 PM 43.7°F6.5°C -3.8°F-19.9°C 13% 2.0 mph NW3.2 kmh NW 5.4 mph8.7 kmh 25.37 in859.1 mb 0.00 in0.0 mm 0.00 in0.0 mm 0.00 in0.0 mm
03:32 PM 43.9°F6.6°C -5.4°F-20.8°C 12% 3.0 mph N4.8 kmh N 5.8 mph9.3 kmh 25.37 in859.1 mb 0.00 in0.0 mm 0.00 in0.0 mm 0.00 in0.0 mm
03:37 PM 43.3°F6.3°C -4.2°F-20.1°C 13% 4.0 mph NE6.4 kmh NE 5.4 mph8.7 kmh 25.37 in859.1 mb 0.00 in0.0 mm 0.00 in0.0 mm 0.00 in0.0 mm
03:42 PM 43.3°F6.3°C -4.2°F-20.1°C 13% 4.0 mph NE6.4 kmh NE 6.3 mph10.1 kmh 25.37 in859.1 mb 0.00 in0.0 mm 0.00 in0.0 mm 0.00 in0.0 mm
03:47 PM 43.0°F6.1°C -4.4°F-20.2°C 13% 4.0 mph ENE6.4 kmh ENE 7.8 mph12.6 kmh 25.37 in859.1 mb 0.00 in0.0 mm 0.00 in0.0 mm 0.00 in0.0 mm
03:52 PM 42.6°F5.9°C -4.7°F-20.4°C 13% 5.0 mph ENE8.0 kmh ENE 6.9 mph11.1 kmh 25.37 in859.1 mb 0.00 in0.0 mm 0.00 in0.0 mm 0.00 in0.0 mm
03:57 PM 42.4°F5.8°C -4.9°F-20.5°C 13% 5.0 mph E8.0 kmh E 6.9 mph11.1 kmh 25.37 in859.1 mb 0.00 in0.0 mm 0.00 in0.0 mm 0.00 in0.0 mm
04:02 PM 42.8°F6.0°C -4.5°F-20.3°C 13% 4.0 mph ENE6.4 kmh ENE 5.8 mph9.3 kmh 25.37 in859.1 mb 0.00 in0.0 mm 0.00 in0.0 mm 0.00 in0.0 mm
04:07 PM 42.1°F5.6°C -5.1°F-20.6°C 13% 3.0 mph ENE4.8 kmh ENE 5.4 mph8.7 kmh 25.37 in859.1 mb 0.00 in0.0 mm 0.00 in0.0 mm 0.00 in0.0 mm
04:12 PM 40.8°F4.9°C -1.8°F-18.8°C 16% 4.0 mph NE6.4 kmh NE 4.5 mph7.2 kmh 25.37 in859.1 mb 0.00 in0.0 mm 0.00 in0.0 mm 0.00 in0.0 mm
04:17 PM 39.9°F4.4°C -2.6°F-19.2°C 16% 3.0 mph NE4.8 kmh NE 4.5 mph7.2 kmh 25.37 in859.1 mb 0.00 in0.0 mm 0.00 in0.0 mm 0.00 in0.0 mm
04:22 PM 39.4°F4.1°C -0.6°F-18.1°C 18% 3.0 mph NE4.8 kmh NE 4.0 mph6.4 kmh 25.37 in859.1 mb 0.00 in0.0 mm 0.00 in0.0 mm 0.00 in0.0 mm
04:27 PM 38.8°F3.8°C -0.9°F-18.3°C 18% 3.0 mph NE4.8 kmh NE 4.0 mph6.4 kmh 25.37 in859.1 mb 0.00 in0.0 mm 0.00 in0.0 mm 0.00 in0.0 mm
04:32 PM 38.5°F3.6°C -1.3°F-18.5°C 18% 2.0 mph NE3.2 kmh NE 4.0 mph6.4 kmh 25.37 in859.1 mb 0.00 in0.0 mm 0.00 in0.0 mm 0.00 in0.0 mm
04:37 PM 38.5°F3.6°C -1.3°F-18.5°C 18% 2.0 mph NE3.2 kmh NE 3.6 mph5.8 kmh 25.37 in859.1 mb 0.00 in0.0 mm 0.00 in0.0 mm 0.00 in0.0 mm
04:42 PM 38.3°F3.5°C 1.8°F-16.8°C 21% 1.0 mph NE1.6 kmh NE 3.1 mph5.0 kmh 25.34 in858.1 mb 0.00 in0.0 mm 0.00 in0.0 mm 0.00 in0.0 mm
04:47 PM 37.9°F3.3°C 1.6°F-16.9°C 21% Calm Calm 3.1 mph5.0 kmh 25.34 in858.1 mb 0.00 in0.0 mm 0.00 in0.0 mm 0.00 in0.0 mm
04:52 PM 37.6°F3.1°C 4.1°F-15.5°C 24% Calm Calm -- 25.34 in858.1 mb 0.00 in0.0 mm 0.00 in0.0 mm 0.00 in0.0 mm
04:57 PM 37.4°F3.0°C 5.7°F-14.6°C 26% Calm Calm -- 25.34 in858.1 mb 0.00 in0.0 mm 0.00 in0.0 mm 0.00 in0.0 mm
05:02 PM 36.9°F2.7°C 5.2°F-14.9°C 26% Calm Calm -- 25.34 in858.1 mb 0.00 in0.0 mm 0.00 in0.0 mm 0.00 in0.0 mm
05:07 PM 36.3°F2.4°C 7.2°F-13.8°C 29% Calm Calm -- 25.34 in858.1 mb 0.00 in0.0 mm 0.00 in0.0 mm 0.00 in0.0 mm
05:12 PM 36.1°F2.3°C 8.4°F-13.1°C 31% Calm Calm -- 25.34 in858.1 mb 0.00 in0.0 mm 0.00 in0.0 mm 0.00 in0.0 mm
05:17 PM 35.6°F2.0°C 8.1°F-13.3°C 31% Calm Calm -- 25.34 in858.1 mb 0.00 in0.0 mm 0.00 in0.0 mm 0.00 in0.0 mm
05:22 PM 35.2°F1.8°C 7.7°F-13.5°C 31% Calm Calm -- 25.34 in858.1 mb 0.00 in0.0 mm 0.00 in0.0 mm 0.00 in0.0 mm
05:27 PM 35.2°F1.8°C 8.4°F-13.1°C 32% Calm Calm 2.7 mph4.3 kmh 25.34 in858.1 mb 0.00 in0.0 mm 0.00 in0.0 mm 0.00 in0.0 mm
05:32 PM 35.2°F1.8°C 7.7°F-13.5°C 31% Calm Calm -- 25.34 in858.1 mb 0.00 in0.0 mm 0.00 in0.0 mm 0.00 in0.0 mm
05:37 PM 35.2°F1.8°C 7.7°F-13.5°C 31% Calm Calm -- 25.34 in858.1 mb 0.00 in0.0 mm 0.00 in0.0 mm 0.00 in0.0 mm
05:42 PM 35.1°F1.7°C 7.5°F-13.6°C 31% Calm Calm -- 25.37 in859.1 mb 0.00 in0.0 mm 0.00 in0.0 mm 0.00 in0.0 mm
05:47 PM 34.9°F1.6°C 7.3°F-13.7°C 31% Calm Calm -- 25.37 in859.1 mb 0.00 in0.0 mm 0.00 in0.0 mm 0.00 in0.0 mm
05:52 PM 34.7°F1.5°C 7.2°F-13.8°C 31% Calm Calm -- 25.37 in859.1 mb 0.00 in0.0 mm 0.00 in0.0 mm 0.00 in0.0 mm
05:57 PM 34.3°F1.3°C 7.5°F-13.6°C 32% Calm Calm -- 25.37 in859.1 mb 0.00 in0.0 mm 0.00 in0.0 mm 0.00 in0.0 mm
06:02 PM 34.3°F1.3°C 7.5°F-13.6°C 32% Calm Calm -- 25.37 in859.1 mb 0.00 in0.0 mm 0.00 in0.0 mm 0.00 in0.0 mm
06:07 PM 34.5°F1.4°C 7.0°F-13.9°C 31% Calm Calm -- 25.37 in859.1 mb 0.00 in0.0 mm 0.00 in0.0 mm 0.00 in0.0 mm
06:12 PM 34.9°F1.6°C 6.6°F-14.1°C 30% Calm Calm -- 25.37 in859.1 mb 0.00 in0.0 mm 0.00 in0.0 mm 0.00 in0.0 mm
06:17 PM 34.5°F1.4°C 6.3°F-14.3°C 30% Calm Calm -- 25.37 in859.1 mb 0.00 in0.0 mm 0.00 in0.0 mm 0.00 in0.0 mm
06:22 PM 34.5°F1.4°C 7.0°F-13.9°C 31% Calm Calm -- 25.37 in859.1 mb 0.00 in0.0 mm 0.00 in0.0 mm 0.00 in0.0 mm
06:27 PM 34.5°F1.4°C 7.0°F-13.9°C 31% Calm Calm 3.1 mph5.0 kmh 25.37 in859.1 mb 0.00 in0.0 mm 0.00 in0.0 mm 0.00 in0.0 mm
06:32 PM 34.7°F1.5°C 7.2°F-13.8°C 31% Calm Calm -- 25.37 in859.1 mb 0.00 in0.0 mm 0.00 in0.0 mm 0.00 in0.0 mm
06:37 PM 35.1°F1.7°C 6.8°F-14.0°C 30% Calm Calm -- 25.37 in859.1 mb 0.00 in0.0 mm 0.00 in0.0 mm 0.00 in0.0 mm
06:42 PM 35.4°F1.9°C 6.4°F-14.2°C 29% Calm Calm -- 25.34 in858.1 mb 0.00 in0.0 mm 0.00 in0.0 mm 0.00 in0.0 mm
06:47 PM 35.2°F1.8°C 6.3°F-14.3°C 29% Calm Calm -- 25.34 in858.1 mb 0.00 in0.0 mm 0.00 in0.0 mm 0.00 in0.0 mm
06:52 PM 34.9°F1.6°C 6.6°F-14.1°C 30% Calm Calm 4.0 mph6.4 kmh 25.34 in858.1 mb 0.00 in0.0 mm 0.00 in0.0 mm 0.00 in0.0 mm
06:57 PM 34.7°F1.5°C 6.4°F-14.2°C 30% Calm Calm 4.0 mph6.4 kmh 25.37 in859.1 mb 0.00 in0.0 mm 0.00 in0.0 mm 0.00 in0.0 mm
07:02 PM 34.0°F1.1°C 5.9°F-14.5°C 30% Calm Calm -- 25.37 in859.1 mb 0.00 in0.0 mm 0.00 in0.0 mm 0.00 in0.0 mm
07:07 PM 33.8°F1.0°C 6.4°F-14.2°C 31% Calm Calm -- 25.37 in859.1 mb 0.00 in0.0 mm 0.00 in0.0 mm 0.00 in0.0 mm
07:12 PM 33.4°F0.8°C 6.1°F-14.4°C 31% Calm Calm 3.6 mph5.8 kmh 25.37 in859.1 mb 0.00 in0.0 mm 0.00 in0.0 mm 0.00 in0.0 mm
07:17 PM 32.9°F0.5°C 6.3°F-14.3°C 32% Calm Calm 3.1 mph5.0 kmh 25.37 in859.1 mb 0.00 in0.0 mm 0.00 in0.0 mm 0.00 in0.0 mm
07:22 PM 32.4°F0.2°C 7.2°F-13.8°C 34% Calm Calm 2.7 mph4.3 kmh 25.37 in859.1 mb 0.00 in0.0 mm 0.00 in0.0 mm 0.00 in0.0 mm
07:27 PM 32.0°F0.0°C 8.1°F-13.3°C 36% Calm Calm -- 25.37 in859.1 mb 0.00 in0.0 mm 0.00 in0.0 mm 0.00 in0.0 mm
07:32 PM 32.9°F0.5°C 7.7°F-13.5°C 34% Calm Calm -- 25.37 in859.1 mb 0.00 in0.0 mm 0.00 in0.0 mm 0.00 in0.0 mm
07:37 PM 33.1°F0.6°C 7.2°F-13.8°C 33% Calm Calm 3.1 mph5.0 kmh 25.37 in859.1 mb 0.00 in0.0 mm 0.00 in0.0 mm 0.00 in0.0 mm
07:43 PM 33.1°F0.6°C 7.2°F-13.8°C 33% Calm Calm -- 25.37 in859.1 mb 0.00 in0.0 mm 0.00 in0.0 mm 0.00 in0.0 mm
07:48 PM 33.6°F0.9°C 7.7°F-13.5°C 33% 1.0 mph NE1.6 kmh NE 4.0 mph6.4 kmh 25.37 in859.1 mb 0.00 in0.0 mm 0.00 in0.0 mm 0.00 in0.0 mm
07:53 PM 33.6°F0.9°C 7.7°F-13.5°C 33% 2.0 mph NE3.2 kmh NE 4.5 mph7.2 kmh 25.37 in859.1 mb 0.00 in0.0 mm 0.00 in0.0 mm 0.00 in0.0 mm
07:58 PM 33.3°F0.7°C 7.9°F-13.4°C 34% Calm Calm -- 25.37 in859.1 mb 0.00 in0.0 mm 0.00 in0.0 mm 0.00 in0.0 mm
08:03 PM 33.1°F0.6°C 7.9°F-13.4°C 34% Calm Calm 4.0 mph6.4 kmh 25.37 in859.1 mb 0.00 in0.0 mm 0.00 in0.0 mm 0.00 in0.0 mm
08:08 PM 32.4°F0.2°C 7.9°F-13.4°C 35% Calm Calm 3.1 mph5.0 kmh 25.37 in859.1 mb 0.00 in0.0 mm 0.00 in0.0 mm 0.00 in0.0 mm
08:13 PM 32.0°F0.0°C 8.1°F-13.3°C 36% Calm Calm 3.6 mph5.8 kmh 25.37 in859.1 mb 0.00 in0.0 mm 0.00 in0.0 mm 0.00 in0.0 mm
08:18 PM 32.2°F0.1°C 8.8°F-12.9°C 37% 2.0 mph ENE3.2 kmh ENE 4.5 mph7.2 kmh 25.37 in859.1 mb 0.00 in0.0 mm 0.00 in0.0 mm 0.00 in0.0 mm
08:23 PM 32.2°F0.1°C 8.8°F-12.9°C 37% 1.0 mph ENE1.6 kmh ENE 2.7 mph4.3 kmh 25.37 in859.1 mb 0.00 in0.0 mm 0.00 in0.0 mm 0.00 in0.0 mm
08:28 PM 32.4°F0.2°C 9.0°F-12.8°C 37% Calm Calm -- 25.37 in859.1 mb 0.00 in0.0 mm 0.00 in0.0 mm 0.00 in0.0 mm
08:33 PM 32.2°F0.1°C 8.2°F-13.2°C 36% Calm Calm -- 25.37 in859.1 mb 0.00 in0.0 mm 0.00 in0.0 mm 0.00 in0.0 mm
08:38 PM 32.4°F0.2°C 8.4°F-13.1°C 36% Calm Calm -- 25.37 in859.1 mb 0.00 in0.0 mm 0.00 in0.0 mm 0.00 in0.0 mm
08:43 PM 32.5°F0.3°C 7.9°F-13.4°C 35% Calm Calm -- 25.37 in859.1 mb 0.00 in0.0 mm 0.00 in0.0 mm 0.00 in0.0 mm
08:48 PM 32.7°F0.4°C 8.1°F-13.3°C 35% Calm Calm 4.5 mph7.2 kmh 25.37 in859.1 mb 0.00 in0.0 mm 0.00 in0.0 mm 0.00 in0.0 mm
08:53 PM 32.4°F0.2°C 7.9°F-13.4°C 35% 2.0 mph ENE3.2 kmh ENE 4.5 mph7.2 kmh 25.37 in859.1 mb 0.00 in0.0 mm 0.00 in0.0 mm 0.00 in0.0 mm
08:58 PM 31.6°F-0.2°C 8.4°F-13.1°C 37% 2.0 mph ENE3.2 kmh ENE 3.6 mph5.8 kmh 25.37 in859.1 mb 0.00 in0.0 mm 0.00 in0.0 mm 0.00 in0.0 mm
09:03 PM 31.1°F-0.5°C 9.1°F-12.7°C 39% Calm Calm -- 25.37 in859.1 mb 0.00 in0.0 mm 0.00 in0.0 mm 0.00 in0.0 mm
09:08 PM 31.3°F-0.4°C 9.3°F-12.6°C 39% Calm Calm -- 25.37 in859.1 mb 0.00 in0.0 mm 0.00 in0.0 mm 0.00 in0.0 mm
09:13 PM 31.6°F-0.2°C 9.5°F-12.5°C 39% Calm Calm -- 25.37 in859.1 mb 0.00 in0.0 mm 0.00 in0.0 mm 0.00 in0.0 mm
09:18 PM 31.3°F-0.4°C 9.3°F-12.6°C 39% Calm Calm -- 25.37 in859.1 mb 0.00 in0.0 mm 0.00 in0.0 mm 0.00 in0.0 mm
09:23 PM 31.3°F-0.4°C 9.9°F-12.3°C 40% Calm Calm 3.6 mph5.8 kmh 25.37 in859.1 mb 0.00 in0.0 mm 0.00 in0.0 mm 0.00 in0.0 mm
09:28 PM 31.8°F-0.1°C 9.7°F-12.4°C 39% Calm Calm -- 25.37 in859.1 mb 0.00 in0.0 mm 0.00 in0.0 mm 0.00 in0.0 mm
09:33 PM 30.7°F-0.7°C 9.9°F-12.3°C 41% 1.0 mph NE1.6 kmh NE 5.4 mph8.7 kmh 25.37 in859.1 mb 0.00 in0.0 mm 0.00 in0.0 mm 0.00 in0.0 mm
09:38 PM 31.1°F-0.5°C 10.2°F-12.1°C 41% 3.0 mph NNE4.8 kmh NNE 4.9 mph7.9 kmh 25.37 in859.1 mb 0.00 in0.0 mm 0.00 in0.0 mm 0.00 in0.0 mm
09:43 PM 30.4°F-0.9°C 9.5°F-12.5°C 41% 1.0 mph N1.6 kmh N 2.7 mph4.3 kmh 25.37 in859.1 mb 0.00 in0.0 mm 0.00 in0.0 mm 0.00 in0.0 mm
09:48 PM 29.8°F-1.2°C 9.5°F-12.5°C 42% Calm Calm 3.6 mph5.8 kmh 25.37 in859.1 mb 0.00 in0.0 mm 0.00 in0.0 mm 0.00 in0.0 mm
09:53 PM 30.6°F-0.8°C 10.2°F-12.1°C 42% Calm Calm 5.4 mph8.7 kmh 25.37 in859.1 mb 0.00 in0.0 mm 0.00 in0.0 mm 0.00 in0.0 mm
09:58 PM 30.4°F-0.9°C 10.0°F-12.2°C 42% 1.0 mph N1.6 kmh N 4.5 mph7.2 kmh 25.37 in859.1 mb 0.00 in0.0 mm 0.00 in0.0 mm 0.00 in0.0 mm
10:03 PM 30.4°F-0.9°C 10.0°F-12.2°C 42% Calm Calm -- 25.37 in859.1 mb 0.00 in0.0 mm 0.00 in0.0 mm 0.00 in0.0 mm
10:08 PM 30.2°F-1.0°C 9.9°F-12.3°C 42% Calm Calm -- 25.37 in859.1 mb 0.00 in0.0 mm 0.00 in0.0 mm 0.00 in0.0 mm
10:13 PM 29.8°F-1.2°C 9.5°F-12.5°C 42% Calm Calm -- 25.37 in859.1 mb 0.00 in0.0 mm 0.00 in0.0 mm 0.00 in0.0 mm
10:18 PM 28.6°F-1.9°C 9.0°F-12.8°C 43% Calm Calm -- 25.37 in859.1 mb 0.00 in0.0 mm 0.00 in0.0 mm 0.00 in0.0 mm
10:23 PM 28.0°F-2.2°C 9.0°F-12.8°C 44% Calm Calm -- 25.37 in859.1 mb 0.00 in0.0 mm 0.00 in0.0 mm 0.00 in0.0 mm
10:28 PM 28.6°F-1.9°C 10.0°F-12.2°C 45% Calm Calm -- 25.37 in859.1 mb 0.00 in0.0 mm 0.00 in0.0 mm 0.00 in0.0 mm
10:33 PM 28.8°F-1.8°C 10.6°F-11.9°C 46% Calm Calm -- 25.37 in859.1 mb 0.00 in0.0 mm 0.00 in0.0 mm 0.00 in0.0 mm
10:38 PM 30.4°F-0.9°C 11.1°F-11.6°C 44% Calm Calm -- 25.37 in859.1 mb 0.00 in0.0 mm 0.00 in0.0 mm 0.00 in0.0 mm
10:43 PM 30.4°F-0.9°C 10.6°F-11.9°C 43% Calm Calm -- 25.37 in859.1 mb 0.00 in0.0 mm 0.00 in0.0 mm 0.00 in0.0 mm
10:48 PM 29.7°F-1.3°C 9.9°F-12.3°C 43% Calm Calm -- 25.37 in859.1 mb 0.00 in0.0 mm 0.00 in0.0 mm 0.00 in0.0 mm
10:53 PM 29.5°F-1.4°C 9.9°F-12.3°C 43% Calm Calm -- 25.37 in859.1 mb 0.00 in0.0 mm 0.00 in0.0 mm 0.00 in0.0 mm
10:58 PM 29.5°F-1.4°C 9.9°F-12.3°C 43% Calm Calm -- 25.37 in859.1 mb 0.00 in0.0 mm 0.00 in0.0 mm 0.00 in0.0 mm
11:03 PM 29.8°F-1.2°C 10.0°F-12.2°C 43% Calm Calm -- 25.37 in859.1 mb 0.00 in0.0 mm 0.00 in0.0 mm 0.00 in0.0 mm
11:08 PM 29.7°F-1.3°C 9.9°F-12.3°C 43% Calm Calm 6.3 mph10.1 kmh 25.37 in859.1 mb 0.00 in0.0 mm 0.00 in0.0 mm 0.00 in0.0 mm
11:13 PM 29.1°F-1.6°C 9.5°F-12.5°C 43% Calm Calm -- 25.37 in859.1 mb 0.00 in0.0 mm 0.00 in0.0 mm 0.00 in0.0 mm
11:19 PM 29.7°F-1.3°C 9.9°F-12.3°C 43% Calm Calm -- 25.37 in859.1 mb 0.00 in0.0 mm 0.00 in0.0 mm 0.00 in0.0 mm
11:24 PM 28.9°F-1.7°C 9.9°F-12.3°C 44% Calm Calm -- 25.37 in859.1 mb 0.00 in0.0 mm 0.00 in0.0 mm 0.00 in0.0 mm
11:29 PM 28.8°F-1.8°C 9.7°F-12.4°C 44% Calm Calm -- 25.37 in859.1 mb 0.00 in0.0 mm 0.00 in0.0 mm 0.00 in0.0 mm
11:34 PM 28.8°F-1.8°C 9.7°F-12.4°C 44% Calm Calm -- 25.37 in859.1 mb 0.00 in0.0 mm 0.00 in0.0 mm 0.00 in0.0 mm
11:39 PM 28.0°F-2.2°C 9.0°F-12.8°C 44% Calm Calm -- 25.37 in859.1 mb 0.00 in0.0 mm 0.00 in0.0 mm 0.00 in0.0 mm
11:44 PM 27.5°F-2.5°C 9.0°F-12.8°C 45% Calm Calm -- 25.37 in859.1 mb 0.00 in0.0 mm 0.00 in0.0 mm 0.00 in0.0 mm
11:49 PM 27.1°F-2.7°C 9.1°F-12.7°C 46% Calm Calm -- 25.37 in859.1 mb 0.00 in0.0 mm 0.00 in0.0 mm 0.00 in0.0 mm
11:54 PM 28.0°F-2.2°C 10.4°F-12.0°C 47% Calm Calm 3.6 mph5.8 kmh 25.37 in859.1 mb 0.00 in0.0 mm 0.00 in0.0 mm 0.00 in0.0 mm
11:59 PM 27.7°F-2.4°C 9.7°F-12.4°C 46% 1.0 mph NW1.6 kmh NW 4.9 mph7.9 kmh 25.37 in859.1 mb 0.00 in0.0 mm 0.00 in0.0 mm 0.00 in0.0 mm